Time;durP1;ratioP1;P1;durP2;ratioP2;P2;SDS_P1;SDS_P2;PMS_P1;PMS_P2;Temp;Humidity;BMP_temperature;BMP_pressure;BME280_temperature;BME280_humidity;BME280_pressure;Samples;Min_cycle;Max_cycle;Signal;HPM_P1;HPM_P2
2022/11/16 00:00:46;;;;;;;7.38;3.70;;;12.10;99.90;;;12.05;100.00;99415.63;5189131;28;20116;-87
2022/11/16 00:03:19;;;;;;;8.40;3.95;;;12.10;99.90;;;12.03;100.00;99419.97;5172832;28;20047;-87
2022/11/16 00:05:56;;;;;;;5.75;3.25;;;12.10;99.90;;;12.05;100.00;99402.56;5174825;28;20042;-88
2022/11/16 00:08:30;;;;;;;6.03;3.13;;;12.10;99.90;;;12.03;100.00;99406.91;5174716;28;20081;-86
2022/11/16 00:11:10;;;;;;;9.57;4.03;;;12.10;99.90;;;12.04;100.00;99406.03;5172323;28;20049;-87
2022/11/16 00:13:44;;;;;;;7.78;3.47;;;12.10;99.90;;;12.04;100.00;99403.44;5171088;28;20046;-87
2022/11/16 00:16:18;;;;;;;6.15;3.13;;;12.10;99.90;;;12.05;100.00;99410.41;5171724;28;20050;-87
2022/11/16 00:18:56;;;;;;;6.18;3.10;;;12.10;99.90;;;12.05;100.00;99404.31;5171941;28;20050;-87
2022/11/16 00:21:29;;;;;;;6.70;3.55;;;12.10;99.90;;;12.05;100.00;99404.31;5171614;28;20064;-87
2022/11/16 00:24:01;;;;;;;6.15;3.08;;;12.10;99.90;;;12.04;100.00;99405.19;5170930;28;20049;-87
2022/11/16 00:26:35;;;;;;;8.02;3.28;;;12.10;99.90;;;12.06;100.00;99401.72;5171277;28;20073;-86
2022/11/16 00:29:09;;;;;;;7.35;3.50;;;12.10;99.90;;;12.06;100.00;99406.03;5170649;28;20137;-87
2022/11/16 00:31:44;;;;;;;6.57;3.50;;;12.10;99.90;;;12.07;100.00;99398.25;5172885;28;20118;-87
2022/11/16 00:34:17;;;;;;;6.88;3.30;;;12.10;99.90;;;12.08;100.00;99394.75;5171303;28;20046;-88
2022/11/16 00:36:50;;;;;;;6.80;3.47;;;12.10;99.90;;;12.07;100.00;99390.41;5171087;28;20042;-87
2022/11/16 00:39:22;;;;;;;6.22;3.20;;;12.10;99.90;;;12.08;100.00;99386.94;5170943;28;20054;-87
2022/11/16 00:41:56;;;;;;;8.02;3.30;;;12.10;99.90;;;12.07;100.00;99393.03;5171952;28;20060;-86
2022/11/16 00:44:28;;;;;;;6.57;2.97;;;12.20;99.90;;;12.11;100.00;99396.50;5175168;28;20536;-87
2022/11/16 00:47:00;;;;;;;5.70;3.13;;;12.20;99.90;;;12.13;100.00;99392.19;5175103;28;20051;-87
2022/11/16 00:49:32;;;;;;;5.28;3.40;;;12.20;99.90;;;12.14;100.00;99386.97;5174283;28;20058;-86
2022/11/16 00:52:04;;;;;;;6.38;3.53;;;12.20;99.90;;;12.12;100.00;99386.06;5174753;28;20081;-87
2022/11/16 00:54:37;;;;;;;5.47;3.00;;;12.20;99.90;;;12.12;100.00;99386.06;5179024;28;20093;-86
2022/11/16 00:57:12;;;;;;;6.88;3.15;;;12.20;99.90;;;12.10;100.00;99381.72;5175038;28;20038;-87
2022/11/16 00:59:44;;;;;;;6.95;3.40;;;12.20;99.90;;;12.14;100.00;99379.13;5173681;28;20077;-87
2022/11/16 01:02:16;;;;;;;6.50;3.30;;;12.20;99.90;;;12.14;100.00;99388.72;5174655;28;20093;-87
2022/11/16 01:04:48;;;;;;;6.43;2.83;;;12.20;99.90;;;12.14;100.00;99373.91;5191696;28;20603;-88
2022/11/16 01:07:20;;;;;;;6.90;3.40;;;12.20;99.90;;;12.13;100.00;99374.78;5174915;28;20133;-87
2022/11/16 01:09:53;;;;;;;6.30;3.58;;;12.20;99.90;;;12.14;100.00;99376.53;5175221;28;20050;-87
2022/11/16 01:12:25;;;;;;;7.95;3.50;;;12.20;99.90;;;12.16;100.00;99376.53;5174643;28;20056;-87
2022/11/16 01:14:57;;;;;;;7.82;3.75;;;12.20;99.90;;;12.14;100.00;99376.53;5173755;28;20109;-86
2022/11/16 01:17:29;;;;;;;7.97;3.50;;;12.20;99.90;;;12.11;100.00;99379.09;5174172;28;20056;-87
2022/11/16 01:20:03;;;;;;;7.53;3.90;;;12.20;99.90;;;12.11;100.00;99373.00;5172674;28;20443;-87
2022/11/16 01:22:36;;;;;;;7.80;3.60;;;12.20;99.90;;;12.10;100.00;99371.25;5178308;28;20145;-88
2022/11/16 01:25:11;;;;;;;6.07;3.05;;;12.20;99.90;;;12.08;100.00;99373.88;5177422;28;20050;-86
2022/11/16 01:27:45;;;;;;;6.75;3.35;;;12.20;99.90;;;12.08;100.00;99366.03;5173754;28;20528;-90
2022/11/16 01:30:24;;;;;;;7.38;3.90;;;12.20;99.90;;;12.06;100.00;99372.09;5172960;28;20056;-87
2022/11/16 01:33:09;;;;;;;5.32;3.05;;;12.20;99.90;;;12.06;100.00;99370.38;5173421;28;20056;-87
2022/11/16 01:35:43;;;;;;;6.93;3.92;;;12.10;99.90;;;12.03;100.00;99370.34;5173128;28;20057;-87
2022/11/16 01:38:17;;;;;;;6.50;3.50;;;12.20;99.90;;;12.02;100.00;99366.00;5173228;28;20042;-87
2022/11/16 01:40:49;;;;;;;8.15;3.88;;;12.10;99.90;;;12.02;100.00;99363.38;5189140;28;20081;-87
2022/11/16 01:43:25;;;;;;;6.68;3.25;;;12.10;99.90;;;12.06;100.00;99370.38;5172748;28;20042;-87
2022/11/16 01:46:03;;;;;;;9.65;3.92;;;12.20;99.90;;;12.07;100.00;99366.03;5173099;28;20073;-86
2022/11/16 01:48:50;;;;;;;7.03;3.53;;;12.10;99.90;;;12.08;100.00;99368.66;5173343;28;20065;-87
2022/11/16 01:51:24;;;;;;;8.20;3.97;;;12.20;99.90;;;12.08;100.00;99368.66;5172993;28;20046;-86
2022/11/16 01:54:00;;;;;;;5.85;3.30;;;12.20;99.90;;;12.09;100.00;99367.78;5171159;28;20050;-87
2022/11/16 01:56:37;;;;;;;8.90;3.17;;;12.20;99.90;;;12.11;100.00;99363.44;5173100;28;20133;-87
2022/11/16 01:59:17;;;;;;;6.95;3.72;;;12.20;99.90;;;12.10;100.00;99377.34;5172625;28;20077;-86
2022/11/16 02:01:50;;;;;;;6.50;3.20;;;12.20;99.90;;;12.11;100.00;99373.88;5173126;28;20042;-88
2022/11/16 02:04:24;;;;;;;5.18;2.83;;;12.20;99.90;;;12.12;100.00;99370.41;5173376;28;20039;-88
2022/11/16 02:07:09;;;;;;;6.40;3.40;;;12.20;99.90;;;12.16;100.00;99361.72;5170004;28;20034;-88
2022/11/16 02:10:04;;;;;;;8.18;3.10;;;12.20;99.90;;;12.16;100.00;99361.72;5169871;28;20043;-89
2022/11/16 02:13:03;;;;;;;5.97;2.85;;;12.20;99.90;;;12.22;100.00;99373.94;5159172;28;20054;-87
2022/11/16 02:15:57;;;;;;;5.93;2.55;;;12.20;99.90;;;12.25;100.00;99376.56;5152170;28;20042;-86
2022/11/16 02:18:41;;;;;;;4.20;2.33;;;12.30;99.90;;;12.28;100.00;99370.50;5151853;28;20043;-89
2022/11/16 02:21:33;;;;;;;5.25;2.72;;;12.30;99.90;;;12.28;100.00;99371.38;5152546;28;20047;-88
2022/11/16 02:24:22;;;;;;;5.65;2.70;;;12.30;99.90;;;12.30;100.00;99367.00;5151866;28;20051;-87
2022/11/16 02:27:24;;;;;;;6.10;2.38;;;12.30;99.90;;;12.30;100.00;99364.41;5151866;28;20053;-86
2022/11/16 02:29:58;;;;;;;4.78;2.55;;;12.30;99.90;;;12.36;100.00;99379.25;5151158;28;20425;-87
2022/11/16 02:32:34;;;;;;;4.40;2.28;;;12.30;99.90;;;12.37;100.00;99368.78;5150808;28;20057;-87
2022/11/16 02:35:14;;;;;;;3.53;2.05;;;12.30;99.90;;;12.39;100.00;99363.59;5151107;28;20038;-88
2022/11/16 02:37:53;;;;;;;3.92;2.30;;;12.40;99.90;;;12.38;100.00;99356.59;5151058;28;20039;-86
2022/11/16 02:40:30;;;;;;;3.90;2.22;;;12.40;99.90;;;12.37;100.00;99349.63;5150533;28;20047;-87
2022/11/16 02:43:07;;;;;;;4.38;2.25;;;12.30;99.90;;;12.38;100.00;99356.59;5150174;28;20130;-87
2022/11/16 02:45:48;;;;;;;4.20;2.15;;;12.30;99.90;;;12.39;100.00;99358.38;5165938;28;20047;-87
2022/11/16 02:48:24;;;;;;;4.80;2.25;;;12.30;99.90;;;12.34;100.00;99339.19;5149680;28;20141;-86
2022/11/16 02:50:57;;;;;;;5.05;2.08;;;12.40;99.90;;;12.32;100.00;99335.66;5150082;28;20047;-87
2022/11/16 02:53:36;;;;;;;3.53;2.17;;;12.30;99.90;;;12.29;100.00;99335.66;5149348;28;20043;-87
2022/11/16 02:56:12;;;;;;;4.60;2.00;;;12.30;99.90;;;12.29;100.00;99326.09;5150191;28;20049;-86
2022/11/16 02:58:45;;;;;;;3.60;1.80;;;12.30;99.90;;;12.27;100.00;99316.50;5166158;28;20057;-89
2022/11/16 03:01:29;;;;;;;5.00;1.88;;;12.30;99.90;;;12.22;100.00;99321.69;5150403;28;20039;-86
2022/11/16 03:04:07;;;;;;;3.53;2.00;;;12.20;99.90;;;12.25;100.00;99320.84;5149512;28;20085;-87
2022/11/16 03:06:42;;;;;;;2.97;1.63;;;12.20;99.90;;;12.23;100.00;99311.25;5150015;28;20114;-87
2022/11/16 03:09:19;;;;;;;3.50;1.92;;;12.30;99.90;;;12.21;100.00;99312.13;5150115;28;20457;-88
2022/11/16 03:11:59;;;;;;;3.28;1.83;;;12.20;99.90;;;12.22;100.00;99313.88;5149935;28;20067;-87
2022/11/16 03:14:36;;;;;;;3.25;1.67;;;12.30;99.90;;;12.20;100.00;99319.09;5149099;28;20039;-87
2022/11/16 03:17:17;;;;;;;2.95;1.30;;;12.20;99.90;;;12.22;100.00;99324.31;5149709;28;20142;-87
2022/11/16 03:20:00;;;;;;;3.55;1.58;;;12.30;99.90;;;12.18;100.00;99315.56;5148813;28;20424;-88
2022/11/16 03:22:39;;;;;;;1.73;1.23;;;12.20;99.90;;;12.23;100.00;99332.16;5149393;28;20473;-86
2022/11/16 03:25:14;;;;;;;1.70;1.23;;;12.30;99.90;;;12.26;100.00;99338.25;5150011;28;20046;-88
2022/11/16 03:27:54;;;;;;;1.90;1.25;;;12.30;99.90;;;12.27;100.00;99337.41;5150070;28;20043;-86
2022/11/16 03:30:31;;;;;;;2.08;1.20;;;12.30;99.90;;;12.32;100.00;99339.16;5112494;28;1117573;-87
2022/11/16 03:33:14;;;;;;;1.65;1.15;;;12.30;99.90;;;12.35;100.00;99340.91;5167398;28;20050;-86
2022/11/16 03:35:57;;;;;;;1.45;1.10;;;12.30;99.90;;;12.33;100.00;99337.44;5151214;28;20532;-88
2022/11/16 03:38:31;;;;;;;1.60;1.02;;;12.30;99.90;;;12.35;100.00;99351.38;5151486;28;20095;-88
2022/11/16 03:41:07;;;;;;;1.83;1.10;;;12.30;99.90;;;12.36;100.00;99353.13;5150728;28;20441;-86
2022/11/16 03:43:42;;;;;;;1.58;1.05;;;12.30;99.90;;;12.33;100.00;99342.66;5150957;28;20054;-89
2022/11/16 03:46:16;;;;;;;2.47;0.98;;;12.30;99.90;;;12.32;100.00;99340.91;5150330;28;20086;-86
2022/11/16 03:48:57;;;;;;;1.67;1.00;;;12.30;99.90;;;12.30;100.00;99353.97;5150688;28;20525;-87
2022/11/16 03:51:32;;;;;;;1.80;1.10;;;12.30;99.90;;;12.26;100.00;99344.38;5150649;28;20051;-88
2022/11/16 03:54:05;;;;;;;1.67;1.20;;;12.30;99.90;;;12.29;100.00;99356.56;5135239;28;20039;-87
2022/11/16 03:56:38;;;;;;;1.95;1.10;;;12.30;99.90;;;12.26;100.00;99349.59;5167172;28;20042;-87
2022/11/16 03:59:11;;;;;;;1.65;0.90;;;12.30;99.90;;;12.28;100.00;99355.69;5150981;28;20053;-86
2022/11/16 04:01:43;;;;;;;1.55;1.00;;;12.30;99.90;;;12.30;100.00;99360.91;5151265;28;20047;-88
2022/11/16 04:24:15;;;;;;;3.13;2.20;;;12.30;99.90;;;12.27;100.00;99380.09;5150078;28;20641;-87
2022/11/16 04:29:45;;;;;;;2.60;1.92;;;12.20;99.90;;;12.28;100.00;99375.72;5150093;28;20039;-86
2022/11/16 04:38:00;;;;;;;14.88;6.25;;;12.20;99.90;;;12.31;100.00;99391.41;5149563;28;20046;-86
2022/11/16 04:40:38;;;;;;;42.80;13.52;;;12.30;99.90;;;12.31;100.00;99386.19;5150495;28;20074;-87
2022/11/16 04:43:11;;;;;;;65.22;20.58;;;12.30;99.90;;;12.28;100.00;99383.56;5149104;28;20057;-87
2022/11/16 04:48:44;;;;;;;29.15;9.75;;;12.20;99.90;;;12.27;100.00;99390.53;5148434;28;20077;-86
2022/11/16 04:51:16;;;;;;;20.00;7.40;;;12.30;99.90;;;12.27;100.00;99393.16;5149450;28;20051;-88
2022/11/16 04:53:50;;;;;;;15.68;6.68;;;12.30;99.90;;;12.27;100.00;99392.28;5166227;28;20058;-86
2022/11/16 04:56:27;;;;;;;11.48;5.30;;;12.30;99.90;;;12.29;100.00;99380.09;5149363;28;20046;-88
2022/11/16 04:58:59;;;;;;;6.05;2.35;;;12.20;99.90;;;12.27;100.00;99389.66;5165980;28;20071;-85
2022/11/16 05:04:22;;;;;;;3.60;1.85;;;12.30;99.90;;;12.26;100.00;99393.09;5149477;28;20057;-88
2022/11/16 05:06:54;;;;;;;2.28;1.40;;;12.20;99.90;;;12.26;100.00;99403.56;5149317;28;20101;-86
2022/11/16 05:09:28;;;;;;;4.60;1.95;;;12.20;99.90;;;12.28;100.00;99402.72;5149958;28;20456;-87
2022/11/16 05:12:01;;;;;;;3.42;1.63;;;12.20;99.90;;;12.29;100.00;99408.81;5149805;28;20058;-87
2022/11/16 05:14:33;;;;;;;4.25;1.85;;;12.20;99.90;;;12.33;100.00;99407.97;5149338;28;20046;-87
2022/11/16 05:17:05;;;;;;;3.78;1.55;;;12.20;99.90;;;12.32;100.00;99398.38;5149131;28;20163;-88
2022/11/16 05:22:29;;;;;;;4.57;1.85;;;12.30;99.90;;;12.34;100.00;99417.56;5149419;28;20051;-87
2022/11/16 05:25:08;;;;;;;4.35;1.60;;;12.30;99.90;;;12.36;100.00;99415.81;5148754;28;20055;-88
2022/11/16 05:27:40;;;;;;;5.88;2.15;;;12.30;99.90;;;12.36;100.00;99421.91;5149126;28;20122;-86
2022/11/16 05:30:13;;;;;;;4.75;1.70;;;12.30;99.90;;;12.36;100.00;99427.16;5153147;28;20129;-86
2022/11/16 05:32:45;;;;;;;3.03;1.73;;;12.30;99.90;;;12.38;100.00;99427.16;5153113;28;20068;-86
2022/11/16 05:35:20;;;;;;;2.90;1.63;;;12.30;99.90;;;12.39;100.00;99423.69;5169204;28;20043;-86
2022/11/16 05:37:52;;;;;;;3.65;1.60;;;12.30;99.90;;;12.42;100.00;99423.69;5164301;23;20058;-84
2022/11/16 05:40:26;;;;;;;3.10;1.58;;;12.30;99.90;;;12.43;100.00;99417.59;5152186;28;20074;-85
2022/11/16 05:43:03;;;;;;;2.88;1.60;;;12.40;99.90;;;12.41;100.00;99424.56;5154776;28;20485;-85
2022/11/16 05:45:40;;;;;;;3.00;1.42;;;12.30;99.90;;;12.41;100.00;99421.97;5154621;28;20046;-83
2022/11/16 05:48:14;;;;;;;1.98;1.40;;;12.30;99.90;;;12.37;100.00;99417.56;5151263;28;20138;-85
2022/11/16 05:50:46;;;;;;;3.45;1.70;;;12.30;99.90;;;12.37;100.00;99417.56;5135727;29;20047;-84
2022/11/16 05:53:25;;;;;;;3.30;1.30;;;12.30;99.90;;;12.33;100.00;99415.81;5136301;28;20047;-85
2022/11/16 05:55:59;;;;;;;2.13;1.33;;;12.30;99.90;;;12.30;100.00;99410.56;5136566;29;20043;-84
2022/11/16 05:58:31;;;;;;;2.13;1.20;;;12.30;99.90;;;12.26;100.00;99424.47;5137834;28;20055;-84
2022/11/16 06:01:05;;;;;;;2.47;1.48;;;12.20;99.90;;;12.18;100.00;99417.44;5139639;28;20047;-85
2022/11/16 06:03:37;;;;;;;2.28;1.40;;;12.20;99.90;;;12.14;100.00;99420.94;5140732;29;20047;-85
2022/11/16 06:06:10;;;;;;;2.85;1.52;;;12.10;99.90;;;12.12;100.00;99417.41;5144121;28;20568;-84
2022/11/16 06:08:42;;;;;;;1.60;1.10;;;12.10;99.90;;;12.08;100.00;99420.88;5134375;28;20058;-84
2022/11/16 06:11:21;;;;;;;1.45;1.10;;;12.00;99.90;;;12.04;100.00;99429.56;5133083;28;20063;-85
2022/11/16 06:13:53;;;;;;;2.00;0.93;;;12.10;99.90;;;11.99;100.00;99427.75;5132025;29;20051;-85
2022/11/16 06:16:25;;;;;;;1.50;1.00;;;11.90;99.90;;;11.91;100.00;99438.16;5131374;28;20047;-85
2022/11/16 06:18:58;;;;;;;1.35;1.08;;;11.90;99.90;;;11.85;100.00;99438.09;5129830;29;20051;-85
2022/11/16 06:21:31;;;;;;;1.98;1.10;;;11.80;99.90;;;11.81;100.00;99446.78;5130196;28;20051;-84
2022/11/16 06:24:07;;;;;;;1.17;1.00;;;11.80;99.90;;;11.80;100.00;99465.88;5129987;29;20058;-85
2022/11/16 06:26:41;;;;;;;1.02;0.95;;;11.70;99.90;;;11.78;100.00;99465.88;5130172;28;20125;-84
2022/11/16 06:29:14;;;;;;;1.33;1.13;;;11.70;99.90;;;11.82;100.00;99469.44;5130284;28;20132;-85
2022/11/16 06:31:46;;;;;;;1.88;1.10;;;11.80;99.90;;;11.86;100.00;99473.78;5131239;28;20117;-85
2022/11/16 06:34:18;;;;;;;1.77;1.10;;;11.80;99.90;;;11.89;100.00;99479.06;5130007;28;20070;-84
2022/11/16 06:36:51;;;;;;;1.88;1.13;;;11.80;99.90;;;11.91;100.00;99482.53;5131148;28;20050;-84
2022/11/16 06:39:23;;;;;;;1.63;1.05;;;11.80;99.90;;;11.94;100.00;99485.19;5128982;28;20104;-85
2022/11/16 06:41:57;;;;;;;1.88;1.10;;;11.90;99.90;;;11.95;100.00;99479.09;5131184;28;20497;-85
2022/11/16 06:44:29;;;;;;;2.88;1.30;;;11.90;99.90;;;11.96;100.00;99483.47;5129657;28;20058;-85
2022/11/16 06:47:06;;;;;;;2.47;1.25;;;11.90;99.90;;;11.97;100.00;99485.22;5129273;29;20043;-84
2022/11/16 06:49:38;;;;;;;2.40;1.25;;;11.90;99.90;;;11.94;100.00;99479.97;5128732;28;20047;-85
2022/11/16 06:52:17;;;;;;;1.77;1.00;;;11.90;99.90;;;11.90;100.00;99483.41;5129853;28;20047;-85
2022/11/16 06:54:49;;;;;;;2.63;0.90;;;11.90;99.90;;;11.87;100.00;99486.00;5130118;28;20055;-85
2022/11/16 06:57:23;;;;;;;1.67;0.88;;;11.80;99.90;;;11.83;100.00;99492.06;5129308;28;20079;-84
2022/11/16 06:59:56;;;;;;;1.25;0.90;;;11.80;99.90;;;11.78;100.00;99498.94;5125815;28;20047;-84
2022/11/16 07:02:29;;;;;;;2.22;0.85;;;11.80;99.90;;;11.76;100.00;99495.44;5128834;28;20051;-84
2022/11/16 07:05:02;;;;;;;1.65;0.85;;;11.70;99.90;;;11.71;100.00;99502.34;5140283;28;20054;-88
2022/11/16 07:07:35;;;;;;;1.65;0.85;;;11.70;99.90;;;11.66;100.00;99511.00;5150297;28;20047;-87
2022/11/16 07:10:08;;;;;;;1.60;0.90;;;11.60;99.90;;;11.69;100.00;99516.25;5149770;28;20053;-87
2022/11/16 07:12:42;;;;;;;1.70;1.05;;;11.70;99.90;;;11.68;100.00;99517.13;5149393;28;20050;-87
2022/11/16 07:15:15;;;;;;;1.10;1.00;;;11.60;99.90;;;11.66;100.00;99516.22;5147999;28;20498;-86
2022/11/16 07:17:51;;;;;;;1.15;1.00;;;11.70;99.90;;;11.64;100.00;99520.56;5148961;28;20054;-88
2022/11/16 07:20:23;;;;;;;1.17;0.73;;;11.60;99.90;;;11.61;100.00;99523.16;5151664;28;20043;-86
2022/11/16 07:22:59;;;;;;;2.35;1.10;;;11.60;99.90;;;11.63;100.00;99536.22;5156183;28;20051;-86
2022/11/16 07:25:33;;;;;;;1.73;1.00;;;11.60;99.90;;;11.60;100.00;99526.59;5157072;28;20125;-87
2022/11/16 07:28:08;;;;;;;1.75;1.00;;;11.60;99.90;;;11.60;100.00;99534.41;5149971;28;20039;-85
2022/11/16 07:30:43;;;;;;;2.40;0.82;;;11.60;99.90;;;11.63;100.00;99542.28;5124905;28;20084;-86
2022/11/16 07:33:37;;;;;;;0.85;0.63;;;11.60;99.90;;;11.67;100.00;99546.69;5152558;28;20051;-84
2022/11/16 07:44:26;;;;;;;3.58;0.93;;;11.70;99.90;;;11.77;100.00;99567.66;4991826;29;20062;-86
2022/11/16 07:51:57;;;;;;;5.72;1.23;;;11.80;99.90;;;11.83;100.00;99573.88;4904170;29;20119;-86
2022/11/16 07:54:40;;;;;;;2.17;0.80;;;11.90;99.90;;;11.90;100.00;99577.41;5064633;28;20060;-86
2022/11/16 07:57:13;;;;;;;1.20;0.70;;;11.90;99.90;;;11.91;100.00;99576.56;5146463;28;20509;-86
2022/11/16 07:59:49;;;;;;;2.45;0.85;;;11.90;99.90;;;11.91;100.00;99581.78;5147719;28;20294;-85
2022/11/16 08:02:22;;;;;;;2.67;0.85;;;11.90;99.90;;;11.96;100.00;99582.69;5148029;28;20145;-87
2022/11/16 08:04:55;;;;;;;3.47;0.73;;;11.90;99.90;;;11.99;100.00;99590.53;5145020;28;20109;-86
2022/11/16 08:07:33;;;;;;;5.68;1.10;;;12.00;99.90;;;12.05;100.00;99587.13;5136268;28;20151;-86
2022/11/16 08:10:07;;;;;;;2.50;0.70;;;12.00;99.90;;;12.07;100.00;99591.53;5114121;29;20051;-86
2022/11/16 08:12:39;;;;;;;1.08;0.75;;;12.10;99.90;;;12.09;100.00;99605.47;5108349;29;20059;-85
2022/11/16 08:15:14;;;;;;;1.95;0.80;;;12.10;99.90;;;12.14;100.00;99606.38;5107486;29;20048;-85
2022/11/16 08:17:46;;;;;;;3.75;1.00;;;12.10;99.90;;;12.18;100.00;99599.44;5108643;28;20058;-84
2022/11/16 08:20:19;;;;;;;1.20;1.10;;;12.10;99.90;;;12.22;100.00;99606.47;5108342;29;20474;-85
2022/11/16 08:22:52;;;;;;;1.10;0.85;;;12.20;99.90;;;12.26;100.00;99618.69;5108623;29;20096;-84
2022/11/16 08:25:24;;;;;;;1.20;0.73;;;12.20;99.90;;;12.35;100.00;99628.34;5113009;28;20047;-86
2022/11/16 08:27:57;;;;;;;1.20;0.80;;;12.30;99.90;;;12.35;100.00;99620.50;5114113;29;20521;-87
2022/11/16 08:30:30;;;;;;;1.77;0.50;;;12.30;99.90;;;12.36;100.00;99619.63;5116576;29;20051;-87
2022/11/16 08:33:03;;;;;;;1.65;0.80;;;12.30;99.90;;;12.37;100.00;99642.28;5114048;29;20111;-86
2022/11/16 08:35:36;;;;;;;2.58;0.90;;;12.30;99.90;;;12.41;100.00;99634.50;5130439;28;20541;-86
2022/11/16 08:38:08;;;;;;;0.82;0.55;;;12.30;99.90;;;12.42;100.00;99638.00;5135462;29;20047;-86
2022/11/16 08:40:41;;;;;;;1.85;0.90;;;12.40;99.90;;;12.48;100.00;99636.31;5136814;28;20086;-86
2022/11/16 08:43:13;;;;;;;1.48;0.70;;;12.40;99.90;;;12.50;100.00;99641.53;5129874;28;20028;-86
2022/11/16 08:45:50;;;;;;;2.80;1.00;;;12.40;99.90;;;12.50;100.00;99638.94;5145786;28;20045;-87
2022/11/16 08:48:23;;;;;;;4.30;1.17;;;12.40;99.90;;;12.54;100.00;99647.69;5153058;28;20051;-85
2022/11/16 08:51:02;;;;;;;1.83;0.70;;;12.40;99.90;;;12.57;100.00;99656.41;5153679;28;20097;-84
2022/11/16 08:53:34;;;;;;;2.80;1.00;;;12.50;99.90;;;12.63;100.00;99655.59;5137030;28;20043;-84
2022/11/16 08:56:08;;;;;;;4.15;0.70;;;12.50;99.90;;;12.72;100.00;99653.06;5134001;28;20102;-83
2022/11/16 08:58:43;;;;;;;;;;;12.60;99.90;;;12.80;100.00;99651.38;5155164;28;20105;-86
2022/11/16 09:01:18;;;;;;;;;;;12.70;99.90;;;12.93;100.00;99655.84;5155964;28;19922;-85
2022/11/16 09:03:50;;;;;;;3.30;1.00;;;12.70;99.90;;;13.11;100.00;99659.47;5157766;28;19926;-85
2022/11/16 09:06:24;;;;;;;2.67;1.13;;;12.80;99.90;;;13.27;100.00;99661.31;5160271;28;20422;-86
2022/11/16 09:08:57;;;;;;;5.05;0.90;;;13.00;99.90;;;13.37;100.00;99663.13;5162076;28;20134;-87
2022/11/16 09:11:29;;;;;;;2.25;0.90;;;13.10;99.90;;;13.46;100.00;99657.94;5163735;28;20049;-87
2022/11/16 09:14:01;;;;;;;1.27;0.73;;;13.20;99.90;;;13.57;100.00;99653.63;5160062;28;20043;-86
2022/11/16 09:16:34;;;;;;;3.15;1.02;;;13.40;99.90;;;13.73;100.00;99662.41;5161098;28;20047;-85
2022/11/16 09:19:06;;;;;;;3.08;1.02;;;13.50;99.90;;;13.84;100.00;99652.88;5159663;28;20050;-85
2022/11/16 09:21:38;;;;;;;3.90;1.13;;;13.60;99.90;;;13.98;100.00;99663.38;5154644;28;20053;-85
2022/11/16 09:24:12;;;;;;;2.50;0.93;;;13.70;99.90;;;14.16;100.00;99657.34;5154679;28;20069;-87
2022/11/16 09:26:44;;;;;;;2.72;1.10;;;13.80;99.90;;;14.37;100.00;99657.34;5154357;28;20054;-85
2022/11/16 09:29:16;;;;;;;2.17;0.68;;;14.00;99.90;;;14.54;100.00;99659.13;5155139;28;20050;-85
2022/11/16 09:31:51;;;;;;;2.67;0.90;;;14.20;99.90;;;14.68;100.00;99652.19;5153314;28;20051;-86
2022/11/16 09:34:23;;;;;;;4.88;0.88;;;14.30;99.90;;;14.78;100.00;99664.41;5133986;28;20390;-84
2022/11/16 09:36:55;;;;;;;2.35;0.65;;;14.40;99.90;;;14.91;100.00;99660.91;5141747;28;20051;-85
2022/11/16 09:39:30;;;;;;;1.60;0.55;;;14.50;99.90;;;15.02;100.00;99662.66;5136173;28;20044;-84
2022/11/16 09:42:19;;;;;;;1.88;0.82;;;14.70;99.90;;;15.09;100.00;99664.38;5134192;28;20084;-84
2022/11/16 09:45:07;;;;;;;1.00;0.60;;;14.70;99.90;;;15.16;100.00;99661.75;5151753;28;20062;-84
2022/11/16 09:47:47;;;;;;;2.88;0.60;;;14.80;99.90;;;15.30;100.00;99659.09;5132190;28;20044;-84
2022/11/16 09:50:38;;;;;;;2.63;0.70;;;14.90;99.90;;;15.36;100.00;99664.31;5132810;28;20043;-83
2022/11/16 09:53:32;;;;;;;1.27;0.57;;;15.00;99.90;;;15.43;99.82;99655.56;5138547;28;20051;-85
2022/11/16 09:56:07;;;;;;;1.50;0.57;;;15.10;99.90;;;15.49;99.14;99659.91;5134862;28;20132;-84
2022/11/16 09:58:48;;;;;;;1.25;0.70;;;15.10;99.90;;;15.64;98.67;99665.13;5134247;29;20613;-83
2022/11/16 10:01:28;;;;;;;1.48;0.63;;;15.20;99.90;;;15.71;97.80;99663.34;5136724;28;20047;-86
2022/11/16 10:04:09;;;;;;;1.77;0.60;;;15.30;99.90;;;15.75;97.60;99662.47;5131532;28;20055;-87
2022/11/16 10:06:49;;;;;;;3.97;0.77;;;15.40;99.90;;;15.80;96.50;99654.59;5132627;29;20517;-87
2022/11/16 10:09:22;;;;;;;3.00;0.80;;;15.40;99.90;;;15.68;94.08;99655.50;5136670;28;20066;-88
2022/11/16 10:12:09;;;;;;;4.60;1.00;;;15.40;99.90;;;15.75;94.42;99651.97;5150524;28;20053;-86
2022/11/16 10:15:15;;;;;;;5.95;0.75;;;15.40;99.90;;;15.80;94.56;99649.34;5141477;28;20055;-87
2022/11/16 10:18:05;;;;;;;2.35;0.60;;;15.40;99.90;;;15.91;94.43;99642.25;5144436;28;20049;-86
2022/11/16 10:21:12;;;;;;;2.35;0.60;;;15.50;99.90;;;15.91;91.79;99639.63;5143740;28;20069;-87
2022/11/16 10:24:09;;;;;;;3.15;0.73;;;15.60;99.90;;;15.82;93.13;99637.06;5132800;28;20053;-83
2022/11/16 10:26:49;;;;;;;7.07;1.13;;;15.50;99.90;;;16.35;100.00;99647.25;5146037;28;20075;-81
2022/11/16 10:29:37;;;;;;;2.70;0.80;;;16.00;99.90;;;16.68;98.15;99626.84;5140221;28;20039;-81
2022/11/16 10:32:18;;;;;;;3.08;0.77;;;16.40;99.90;;;16.75;93.41;99633.81;5147079;28;20046;-87
2022/11/16 10:34:53;;;;;;;2.53;0.95;;;16.50;99.90;;;16.65;91.20;99629.50;5149968;28;20402;-87
2022/11/16 10:37:31;;;;;;;1.33;0.57;;;16.50;99.80;;;16.57;91.32;99620.81;5150057;28;20406;-87
2022/11/16 10:40:19;;;;;;;3.92;1.02;;;16.40;99.90;;;16.80;99.62;99632.91;5135677;28;20055;-84
2022/11/16 10:43:06;;;;;;;4.20;0.73;;;16.60;99.90;;;16.85;88.88;99624.97;5133161;28;20054;-89
2022/11/16 10:45:43;;;;;;;3.08;0.90;;;16.70;98.90;;;16.67;87.97;99619.84;5147357;28;20513;-85
2022/11/16 10:48:29;;;;;;;3.50;0.75;;;16.60;98.30;;;16.57;89.42;99618.19;5164103;28;20051;-85
2022/11/16 10:51:02;;;;;;;2.05;0.88;;;16.50;98.90;;;16.57;89.81;99618.19;5148943;28;20105;-85
2022/11/16 10:53:37;;;;;;;2.90;1.10;;;16.40;99.10;;;16.65;91.80;99613.72;5149713;28;20054;-86
2022/11/16 10:56:21;;;;;;;2.35;0.70;;;16.40;99.80;;;16.61;90.65;99617.25;5149937;28;20047;-83
2022/11/16 10:58:58;;;;;;;3.40;1.00;;;16.40;99.50;;;16.40;89.94;99606.03;5147998;28;20051;-83
2022/11/16 11:01:37;;;;;;;3.15;0.70;;;16.30;99.20;;;16.34;91.10;99606.06;5148426;28;20061;-84
2022/11/16 11:04:23;;;;;;;3.80;1.10;;;16.20;99.40;;;16.37;91.55;99611.31;5148764;28;20505;-85
2022/11/16 11:06:58;;;;;;;5.13;1.15;;;16.10;99.80;;;16.32;91.72;99602.59;5149660;28;20054;-86
2022/11/16 11:09:34;;;;;;;3.20;0.90;;;16.10;99.90;;;16.29;93.04;99602.59;5148137;28;20421;-85
2022/11/16 11:15:22;;;;;;;4.43;1.00;;;16.10;99.90;;;16.54;92.31;99596.25;5148086;28;20051;-83
2022/11/16 11:18:24;;;;;;;2.03;0.80;;;16.20;99.90;;;16.67;91.27;99588.25;5144890;28;20659;-90
2022/11/16 11:21:14;;;;;;;2.33;0.65;;;16.40;99.90;;;16.67;89.93;99580.38;5133644;28;20038;-88
2022/11/16 11:23:51;;;;;;;1.17;0.63;;;16.40;99.30;;;16.66;90.53;99579.50;5139066;28;20054;-87
2022/11/16 11:26:32;;;;;;;2.90;0.80;;;16.40;99.70;;;16.62;89.65;99582.16;5130568;28;20051;-87
2022/11/16 11:29:17;;;;;;;3.88;1.05;;;16.40;99.00;;;16.54;88.76;99572.56;5136403;28;20051;-87
2022/11/16 11:31:51;;;;;;;1.52;0.60;;;16.30;98.70;;;16.38;89.34;99578.88;5145198;28;20055;-91
2022/11/16 11:34:27;;;;;;;3.85;0.90;;;16.20;98.80;;;16.22;90.37;99569.34;5132799;28;20053;-87
2022/11/16 11:37:03;;;;;;;4.32;0.80;;;16.00;99.10;;;16.10;90.40;99580.81;5137917;28;20051;-87
2022/11/16 11:39:36;;;;;;;2.75;0.80;;;16.00;99.10;;;16.00;91.69;99579.13;5203268;23;20050;-57
2022/11/16 11:42:23;;;;;;;4.57;1.10;;;15.80;99.50;;;16.06;93.13;99571.22;5142554;28;20046;-59
2022/11/16 11:44:59;;;;;;;6.35;1.55;;;15.80;99.90;;;16.16;93.24;99553.59;5142761;28;20508;-60